Time;durP1;ratioP1;P1;durP2;ratioP2;P2;SDS_P1;SDS_P2;PMS_P1;PMS_P2;Temp;Humidity;BMP_temperature;BMP_pressure;BME280_temperature;BME280_humidity;BME280_pressure;Samples;Min_cycle;Max_cycle;Signal;HPM_P1;HPM_P2
2023/03/06 19:36:53;;;;;;;;;;;;;;;3.15;70.25;97001.84;6205480;22;19986;-62
2023/03/06 19:39:18;;;;;;;;;;;;;;;3.19;70.15;97007.69;6214339;23;19916;-63
2023/03/06 19:41:46;;;;;;;;;;;;;;;3.15;70.22;97004.44;6212225;23;19915;-61
2023/03/06 19:44:13;;;;;;;;;;;;;;;3.18;69.94;97001.66;6214434;23;19936;-62
2023/03/06 19:46:39;;;;;;;;;;;;;;;3.10;70.15;96998.69;6214528;23;19908;-62
2023/03/06 19:49:10;;;;;;;;;;;;;;;3.03;70.40;96998.22;6214792;23;19915;-63
2023/03/06 19:51:35;;;;;;;;;;;;;;;2.99;70.59;96988.94;6214726;23;19931;-63
2023/03/06 19:54:01;;;;;;;;;;;;;;;2.97;71.41;96992.56;6187413;23;20331;-63
2023/03/06 19:56:27;;;;;;;;;;;;;;;2.97;70.95;96990.78;6214694;23;19915;-63
2023/03/06 19:58:52;;;;;;;;;;;;;;;2.97;71.00;96995.97;6214969;23;19943;-63
2023/03/06 20:01:18;;;;;;;;;;;;;;;2.98;70.94;96994.22;6214521;23;19908;-63
2023/03/06 20:03:43;;;;;;;;;;;;;;;2.99;71.22;96998.47;6214105;23;19915;-63
2023/03/06 20:06:12;;;;;;;;;;;;;;;2.96;70.93;96994.31;6214883;23;19908;-63
2023/03/06 20:08:37;;;;;;;;;;;;;;;2.95;71.62;96997.81;6187698;23;20319;-63
2023/03/06 20:11:03;;;;;;;;;;;;;;;2.99;71.22;96994.09;6214630;23;19964;-63
2023/03/06 20:13:28;;;;;;;;;;;;;;;2.99;71.36;96994.09;6213874;23;19907;-63
2023/03/06 20:15:53;;;;;;;;;;;;;;;3.01;71.40;96997.47;6214100;23;20366;-63
2023/03/06 20:18:18;;;;;;;;;;;;;;;2.99;71.81;96988.09;6213244;23;19914;-62
2023/03/06 20:20:44;;;;;;;;;;;;;;;3.00;71.19;96984.59;6186689;23;20300;-63
2023/03/06 20:23:10;;;;;;;;;;;;;;;3.02;71.12;96987.94;6213995;23;20332;-63
2023/03/06 20:25:35;;;;;;;;;;;;;;;3.01;71.04;96987.09;6187880;23;20308;-64
2023/03/06 20:28:00;;;;;;;;;;;;;;;3.02;71.13;96983.56;6187711;23;20293;-62
2023/03/06 20:30:25;;;;;;;;;;;;;;;3.02;71.34;96980.97;6187115;23;19928;-63
2023/03/06 20:32:51;;;;;;;;;;;;;;;3.06;71.70;96982.50;6214027;23;19912;-62
2023/03/06 20:35:16;;;;;;;;;;;;;;;3.05;70.62;96980.81;6214436;23;19943;-63
2023/03/06 20:37:42;;;;;;;;;;;;;;;2.99;70.65;96975.16;6187092;23;19912;-63
2023/03/06 20:40:07;;;;;;;;;;;;;;;3.01;70.57;96986.25;6213651;23;19915;-64
2023/03/06 20:42:33;;;;;;;;;;;;;;;2.92;70.87;96987.63;6187352;23;19939;-64
2023/03/06 20:44:58;;;;;;;;;;;;;;;2.97;70.84;96985.63;6213578;23;19912;-63
2023/03/06 20:47:23;;;;;;;;;;;;;;;2.92;70.83;96981.59;6213584;23;19915;-63
2023/03/06 20:49:48;;;;;;;;;;;;;;;2.93;70.82;96989.31;6212423;23;19916;-63
2023/03/06 20:52:13;;;;;;;;;;;;;;;2.95;71.21;96984.03;6213357;23;19908;-63
2023/03/06 20:54:39;;;;;;;;;;;;;;;2.95;71.28;96990.03;6214239;23;19915;-63
2023/03/06 20:57:04;;;;;;;;;;;;;;;2.97;70.79;96980.44;6213276;23;19908;-63
2023/03/06 20:59:29;;;;;;;;;;;;;;;2.96;71.20;96976.19;6213541;23;19915;-63
2023/03/06 21:01:54;;;;;;;;;;;;;;;2.92;70.87;96966.91;6213252;23;19908;-62
2023/03/06 21:04:19;;;;;;;;;;;;;;;2.96;70.65;96983.94;6211931;23;19950;-63
2023/03/06 21:06:45;;;;;;;;;;;;;;;2.94;70.61;96974.59;6212014;23;20015;-63
2023/03/06 21:09:11;;;;;;;;;;;;;;;2.93;70.80;96984.13;6212480;23;19912;-62
2023/03/06 21:11:36;;;;;;;;;;;;;;;2.92;71.22;96985.03;6186610;23;19908;-63
2023/03/06 21:14:01;;;;;;;;;;;;;;;2.88;71.07;96978.34;6212428;23;20332;-63
2023/03/06 21:16:27;;;;;;;;;;;;;;;2.88;70.88;96975.75;6212360;23;20224;-62
2023/03/06 21:18:52;;;;;;;;;;;;;;;2.87;70.76;96978.47;6212612;23;20374;-62
